Time;durP1;ratioP1;P1;durP2;ratioP2;P2;SDS_P1;SDS_P2;PMS_P1;PMS_P2;Temp;Humidity;BMP_temperature;BMP_pressure;BME280_temperature;BME280_humidity;BME280_pressure;Samples;Min_cycle;Max_cycle;Signal;HPM_P1;HPM_P2
2023/07/26 00:00:05;;;;;;;13.25;6.00;;;;;;;28.85;56.28;97143.38;5112055;28;20172;-57
2023/07/26 00:02:31;;;;;;;10.77;5.40;;;;;;;28.73;53.30;97129.38;5112314;28;20171;-57
2023/07/26 00:04:56;;;;;;;18.02;4.72;;;;;;;28.48;45.95;97105.94;5112090;28;20608;-57
2023/07/26 00:07:22;;;;;;;12.35;4.82;;;;;;;28.48;45.66;97108.63;5111896;28;20237;-57
2023/07/26 00:09:47;;;;;;;9.05;4.47;;;;;;;28.31;45.39;97102.53;5112399;27;20194;-57
2023/07/26 00:12:12;;;;;;;10.13;5.13;;;;;;;28.40;45.38;97105.59;5112082;28;20175;-57
2023/07/26 00:14:38;;;;;;;14.95;5.10;;;;;;;28.29;47.70;97101.94;5112048;28;20175;-56
2023/07/26 00:17:04;;;;;;;10.65;4.95;;;;;;;28.09;50.00;97104.38;5111957;28;20624;-57
2023/07/26 00:19:29;;;;;;;13.65;5.35;;;;;;;28.22;48.49;97113.84;5112085;28;20167;-57
2023/07/26 00:21:54;;;;;;;10.32;4.90;;;;;;;28.10;46.54;97089.22;5111946;28;20167;-57
2023/07/26 00:24:20;;;;;;;11.70;5.45;;;;;;;28.08;45.96;97070.03;5112182;28;20231;-57
2023/07/26 00:26:45;;;;;;;10.68;4.68;;;;;;;28.35;44.79;97103.66;5111536;28;20206;-57
2023/07/26 00:29:11;;;;;;;16.05;5.13;;;;;;;28.32;46.55;97098.81;5111332;28;20250;-57
2023/07/26 00:31:36;;;;;;;14.05;5.80;;;;;;;28.52;53.78;97120.34;5111671;28;20168;-57
2023/07/26 00:34:01;;;;;;;13.40;6.20;;;;;;;28.33;54.35;97100.41;5111734;28;20222;-57
2023/07/26 00:36:27;;;;;;;11.98;6.00;;;;;;;28.22;53.38;97098.69;5111647;28;20202;-57
2023/07/26 00:38:52;;;;;;;14.77;6.15;;;;;;;28.10;55.23;97098.00;5111676;28;20182;-57
2023/07/26 00:41:17;;;;;;;11.68;5.88;;;;;;;28.01;57.34;97099.50;5111670;28;20626;-57
2023/07/26 00:43:43;;;;;;;15.80;6.20;;;;;;;27.87;59.83;97068.97;5111659;28;20179;-57
2023/07/26 00:46:08;;;;;;;13.23;5.13;;;;;;;27.88;50.70;97070.56;5111501;28;20238;-57
2023/07/26 00:48:35;;;;;;;15.65;5.00;;;;;;;27.96;52.67;97072.81;5111248;28;20201;-57
2023/07/26 00:51:02;;;;;;;14.77;6.05;;;;;;;27.93;48.27;97081.28;5111511;28;20175;-57
2023/07/26 00:53:27;;;;;;;14.82;5.18;;;;;;;27.76;49.66;97058.44;5111891;28;20634;-57
2023/07/26 00:55:54;;;;;;;12.57;5.72;;;;;;;28.02;53.58;97071.84;5111565;28;20167;-57
2023/07/26 00:58:20;;;;;;;9.18;5.78;;;;;;;27.68;55.85;97054.31;5111216;28;20182;-57
2023/07/26 01:00:47;;;;;;;11.70;5.97;;;;;;;27.61;55.57;97029.78;5111195;28;20167;-57
2023/07/26 01:03:13;;;;;;;10.07;5.40;;;;;;;27.79;55.72;97045.47;5111995;28;20248;-57
2023/07/26 01:05:55;;;;;;;8.85;4.88;;;;;;;27.95;50.67;97057.94;5111379;28;20239;-57
2023/07/26 01:08:38;;;;;;;12.10;5.78;;;;;;;27.77;51.85;97028.97;5111525;28;20238;-57
2023/07/26 01:11:16;;;;;;;15.77;5.18;;;;;;;27.81;55.19;97042.56;5111316;28;20182;-57
2023/07/26 01:13:53;;;;;;;15.68;6.55;;;;;;;27.94;57.04;97061.59;5111403;28;20205;-57
2023/07/26 01:16:19;;;;;;;13.15;6.18;;;;;;;27.86;58.27;97051.41;5111364;28;20171;-57
2023/07/26 01:18:45;;;;;;;12.70;5.88;;;;;;;27.72;58.89;97044.00;5111232;28;20262;-56
2023/07/26 01:21:10;;;;;;;16.33;6.68;;;;;;;27.71;59.31;97053.84;5111296;28;20223;-56
2023/07/26 01:23:38;;;;;;;12.73;5.85;;;;;;;27.51;60.56;97031.50;5110870;28;20266;-56
2023/07/26 01:26:03;;;;;;;11.90;6.53;;;;;;;27.57;61.49;97041.94;5111125;28;20198;-56
2023/07/26 01:28:29;;;;;;;15.60;6.53;;;;;;;27.85;61.79;97081.72;5111508;28;20175;-56
2023/07/26 01:30:58;;;;;;;10.07;5.57;;;;;;;27.74;61.61;97071.97;5110890;28;20171;-56
2023/07/26 01:33:25;;;;;;;12.15;6.40;;;;;;;27.76;61.94;97082.34;5111108;28;20208;-56
2023/07/26 01:35:52;;;;;;;12.32;6.10;;;;;;;27.65;61.97;97069.97;5111100;28;20175;-56
2023/07/26 01:38:19;;;;;;;10.52;6.10;;;;;;;27.55;62.61;97075.13;5111227;28;20171;-56
2023/07/26 01:40:45;;;;;;;13.25;6.47;;;;;;;27.04;65.36;97062.88;5111685;28;20171;-56
2023/07/26 01:43:11;;;;;;;13.05;7.10;;;;;;;26.98;66.63;97087.75;5115305;28;20179;-56
2023/07/26 01:45:36;;;;;;;10.40;6.63;;;;;;;26.57;68.83;97090.72;5114938;28;20168;-56
2023/07/26 01:48:01;;;;;;;16.55;6.95;;;;;;;26.31;69.57;97056.75;5114623;28;20213;-56
2023/07/26 01:50:27;;;;;;;12.68;7.07;;;;;;;26.24;70.14;97064.06;5114875;28;20176;-56
2023/07/26 01:52:52;;;;;;;18.05;6.97;;;;;;;26.38;70.17;97080.50;5114870;28;20218;-56
2023/07/26 01:55:18;;;;;;;12.80;6.65;;;;;;;26.03;71.31;97085.91;5114880;28;20610;-56
2023/07/26 01:57:43;;;;;;;14.80;6.13;;;;;;;26.07;70.53;97070.34;5114814;28;20179;-56
2023/07/26 02:00:09;;;;;;;12.45;7.18;;;;;;;26.51;74.46;97098.78;5115008;28;20175;-56
2023/07/26 02:02:35;;;;;;;11.77;7.07;;;;;;;26.69;76.30;97098.63;5111993;28;20248;-56
2023/07/26 02:05:00;;;;;;;10.73;7.20;;;;;;;26.27;78.39;97086.66;5111862;28;20624;-56
2023/07/26 02:07:26;;;;;;;13.32;7.50;;;;;;;26.37;77.22;97063.75;5112110;28;20251;-56
2023/07/26 02:09:51;;;;;;;15.75;7.65;;;;;;;26.44;76.94;97082.22;5112094;28;20684;-56
2023/07/26 02:12:17;;;;;;;11.23;7.30;;;;;;;26.25;78.13;97068.31;5111962;28;20269;-56
2023/07/26 02:14:42;;;;;;;10.65;7.35;;;;;;;26.20;78.84;97075.38;5111976;28;20692;-57
2023/07/26 02:17:07;;;;;;;10.80;7.90;;;;;;;26.21;78.93;97069.84;5111903;28;20259;-57
2023/07/26 02:19:33;;;;;;;9.75;8.07;;;;;;;26.43;80.28;97107.94;5111868;28;20656;-57
2023/07/26 02:21:58;;;;;;;11.85;7.78;;;;;;;26.47;80.75;97087.06;5111785;28;20681;-57
2023/07/26 02:24:23;;;;;;;17.45;8.27;;;;;;;26.22;81.88;97084.72;5111742;28;20175;-57
2023/07/26 02:26:49;;;;;;;12.45;7.75;;;;;;;26.28;82.50;97106.81;5111673;28;20710;-57
2023/07/26 02:29:14;;;;;;;13.48;8.23;;;;;;;26.36;81.23;97109.91;5111651;28;20680;-56
2023/07/26 02:31:40;;;;;;;14.55;8.25;;;;;;;26.20;81.73;97092.09;5111685;28;20304;-57
2023/07/26 02:34:05;;;;;;;11.20;8.40;;;;;;;25.99;83.89;97094.53;5113318;28;20191;-57
2023/07/26 02:36:30;;;;;;;11.48;8.35;;;;;;;25.76;85.14;97074.16;5113769;28;20195;-57
2023/07/26 02:38:56;;;;;;;10.00;7.90;;;;;;;25.67;85.80;97067.59;5114005;28;20222;-57
2023/07/26 02:41:21;;;;;;;14.93;8.32;;;;;;;25.56;87.80;97078.22;5113933;28;20172;-57
2023/07/26 02:43:46;;;;;;;10.15;7.90;;;;;;;25.37;89.85;97100.56;5113861;28;20180;-57
2023/07/26 02:46:12;;;;;;;13.80;8.18;;;;;;;25.08;90.67;97073.06;5113683;28;20279;-57
2023/07/26 02:48:37;;;;;;;16.08;8.52;;;;;;;25.36;89.81;97102.38;5113523;28;20171;-57
2023/07/26 02:51:03;;;;;;;16.25;8.80;;;;;;;25.55;88.51;97103.09;5113720;28;20188;-57
2023/07/26 02:53:28;;;;;;;12.98;7.68;;;;;;;25.57;86.09;97107.13;5113301;28;20176;-57
2023/07/26 02:55:53;;;;;;;11.77;6.97;;;;;;;25.69;83.62;97089.38;5113564;28;20186;-57
2023/07/26 02:58:19;;;;;;;13.90;7.97;;;;;;;25.88;79.76;97084.72;5113621;28;20172;-57
2023/07/26 03:00:44;;;;;;;12.18;7.72;;;;;;;26.06;80.83;97116.47;5113573;28;20232;-57
2023/07/26 03:03:10;;;;;;;16.85;8.60;;;;;;;25.69;82.01;97078.78;5113470;28;20323;-57
2023/07/26 03:05:38;;;;;;;10.43;7.50;;;;;;;25.58;83.54;97094.66;5113548;28;20218;-57
2023/07/26 03:08:04;;;;;;;15.93;8.05;;;;;;;25.49;84.89;97099.50;5113017;28;20194;-57
2023/07/26 03:10:29;;;;;;;14.38;9.07;;;;;;;25.15;86.26;97079.09;5113374;28;20175;-57
2023/07/26 03:12:55;;;;;;;12.57;8.70;;;;;;;25.29;86.04;97077.03;5113309;28;20270;-57
2023/07/26 03:15:21;;;;;;;13.23;8.38;;;;;;;25.49;84.53;97090.78;5113284;28;20637;-57
2023/07/26 03:17:46;;;;;;;9.35;7.65;;;;;;;25.41;85.75;97091.91;5113200;28;20193;-57
2023/07/26 03:20:12;;;;;;;11.93;8.50;;;;;;;25.31;86.36;97072.34;5113338;28;20262;-56
2023/07/26 03:22:37;;;;;;;10.60;7.55;;;;;;;25.19;86.29;97061.69;5113131;28;20553;-57
2023/07/26 03:25:03;;;;;;;14.80;7.85;;;;;;;25.25;86.15;97052.06;5113069;28;20167;-57
2023/07/26 03:27:29;;;;;;;11.30;7.70;;;;;;;25.54;84.69;97083.72;5110264;28;20541;-57
2023/07/26 03:29:54;;;;;;;15.13;6.97;;;;;;;25.39;86.10;97086.06;5110414;28;20187;-57
2023/07/26 03:32:20;;;;;;;13.07;7.10;;;;;;;25.38;85.79;97065.09;5110379;28;20179;-57
2023/07/26 03:34:45;;;;;;;11.90;7.80;;;;;;;25.40;85.71;97074.41;5110387;28;20300;-57
2023/07/26 03:37:10;;;;;;;12.63;7.25;;;;;;;25.39;84.45;97069.34;5110308;28;20638;-57
2023/07/26 03:39:36;;;;;;;15.35;7.55;;;;;;;25.34;84.57;97070.03;5110412;28;20189;-57
2023/07/26 03:42:01;;;;;;;9.43;6.32;;;;;;;25.25;83.10;97022.94;5110171;28;20171;-57
2023/07/26 03:44:27;;;;;;;12.80;6.60;;;;;;;25.56;81.92;97063.13;5110108;28;20175;-57
2023/07/26 03:46:52;;;;;;;10.13;6.63;;;;;;;25.32;80.79;97027.06;5110276;28;20247;-57
2023/07/26 03:49:17;;;;;;;11.93;6.55;;;;;;;25.52;79.04;97026.72;5109999;28;20618;-55
2023/07/26 03:51:43;;;;;;;13.10;7.40;;;;;;;25.72;78.90;97059.75;5109842;28;20211;-56
2023/07/26 03:54:08;;;;;;;13.35;7.00;;;;;;;25.83;78.00;97069.53;5109998;28;20178;-56
2023/07/26 03:56:34;;;;;;;11.48;6.30;;;;;;;25.94;76.41;97055.50;5109857;28;20183;-56
2023/07/26 03:58:59;;;;;;;12.15;6.47;;;;;;;25.90;76.43;97027.84;5109883;28;20183;-56
2023/07/26 04:01:25;;;;;;;13.10;6.90;;;;;;;25.89;79.04;97057.22;5110086;28;20182;-56
2023/07/26 04:03:51;;;;;;;15.05;6.85;;;;;;;25.97;77.29;97060.34;5108989;28;20183;-56
2023/07/26 04:06:16;;;;;;;11.00;6.90;;;;;;;25.67;78.50;97037.66;5112027;28;20203;-56
2023/07/26 04:08:42;;;;;;;13.60;7.07;;;;;;;25.88;72.96;97053.75;5111928;28;20178;-56
2023/07/26 04:11:07;;;;;;;15.48;7.10;;;;;;;25.95;72.28;97035.88;5112194;28;20175;-55
2023/07/26 04:13:33;;;;;;;11.98;6.50;;;;;;;25.98;73.61;97051.34;5112125;28;20554;-55
2023/07/26 04:15:59;;;;;;;11.48;6.55;;;;;;;25.77;76.28;97006.06;5112322;28;20201;-55
2023/07/26 04:18:25;;;;;;;14.55;6.88;;;;;;;25.73;77.97;97016.31;5112009;28;20236;-55
2023/07/26 04:20:50;;;;;;;12.43;6.65;;;;;;;25.99;71.90;97030.91;5111644;28;20711;-55
2023/07/26 04:23:16;;;;;;;12.02;5.93;;;;;;;25.86;68.52;97012.59;5111712;28;20168;-56
2023/07/26 04:25:41;;;;;;;12.85;6.40;;;;;;;25.90;64.64;97021.75;5111974;28;20179;-56
2023/07/26 04:28:06;;;;;;;16.42;6.53;;;;;;;26.18;69.66;97040.34;5111861;28;20199;-56
2023/07/26 04:30:32;;;;;;;14.00;7.28;;;;;;;26.18;72.72;97030.53;5111868;28;20661;-56
2023/07/26 04:32:57;;;;;;;11.60;6.70;;;;;;;26.14;73.08;97012.69;5111582;28;20257;-56
2023/07/26 04:35:22;;;;;;;15.40;8.30;;;;;;;26.47;70.89;97048.03;5111720;28;20175;-56
2023/07/26 04:37:48;;;;;;;15.40;9.45;;;;;;;26.38;69.99;97015.00;5111673;28;20244;-56
2023/07/26 04:40:13;;;;;;;10.02;6.20;;;;;;;26.62;57.80;97011.22;5111727;28;20557;-56
2023/07/26 04:42:39;;;;;;;9.82;5.93;;;;;;;26.64;54.83;96990.53;5111729;28;20233;-56
2023/07/26 04:45:04;;;;;;;21.02;6.57;;;;;;;26.86;54.06;97012.69;5111628;28;20663;-56
2023/07/26 04:47:31;;;;;;;11.43;5.97;;;;;;;26.88;53.27;96988.56;5111618;28;20217;-56
2023/07/26 04:49:57;;;;;;;12.98;6.35;;;;;;;27.08;52.72;97031.34;5111566;28;20183;-56
2023/07/26 04:52:22;;;;;;;13.23;5.47;;;;;;;26.90;52.39;96975.84;5111569;28;20236;-55
2023/07/26 04:54:48;;;;;;;13.32;5.82;;;;;;;27.24;52.52;97015.41;5111458;28;20175;-56
2023/07/26 04:57:13;;;;;;;13.48;6.47;;;;;;;27.23;51.61;97003.19;5111468;28;20258;-56
2023/07/26 04:59:38;;;;;;;14.00;6.00;;;;;;;27.15;51.02;96979.69;5111445;28;20171;-56
2023/07/26 05:02:04;;;;;;;15.60;5.80;;;;;;;27.36;50.11;97005.53;5111409;28;20198;-56
2023/07/26 05:04:29;;;;;;;14.50;6.78;;;;;;;27.36;48.85;96965.69;5111394;28;20247;-56
2023/07/26 05:06:55;;;;;;;10.85;6.00;;;;;;;27.46;48.74;96978.28;5110819;28;20746;-56
2023/07/26 05:09:20;;;;;;;11.48;5.95;;;;;;;27.75;48.12;96999.13;5108706;28;20274;-57
2023/07/26 05:11:45;;;;;;;18.05;6.70;;;;;;;27.71;47.99;96970.63;5108746;28;20573;-56
2023/07/26 05:14:11;;;;;;;20.63;7.07;;;;;;;27.72;48.25;96959.75;5108757;28;20190;-56
2023/07/26 05:16:36;;;;;;;11.75;5.85;;;;;;;28.04;47.68;96999.78;5112705;28;20250;-56
2023/07/26 05:19:02;;;;;;;15.98;7.03;;;;;;;28.05;48.90;97004.84;5113064;28;20182;-55
2023/07/26 05:21:27;;;;;;;17.20;9.18;;;;;;;28.31;66.37;97028.03;5113258;28;20277;-55
2023/07/26 05:23:52;;;;;;;17.90;9.73;;;;;;;28.42;68.45;97048.41;5112870;28;20175;-56
2023/07/26 05:26:18;;;;;;;16.27;9.00;;;;;;;28.17;68.19;97021.47;5112729;28;20319;-57
2023/07/26 05:28:43;;;;;;;32.50;12.27;;;;;;;28.23;70.31;97039.09;5113002;28;20316;-55
2023/07/26 05:31:08;;;;;;;32.53;11.73;;;;;;;28.20;70.62;97020.16;5112848;28;20634;-57
2023/07/26 05:33:34;;;;;;;35.47;12.27;;;;;;;28.26;70.98;97035.13;5112700;28;20225;-57
2023/07/26 05:35:59;;;;;;;28.75;12.55;;;;;;;28.32;71.38;97061.56;5112810;28;20254;-57
2023/07/26 05:38:25;;;;;;;23.27;11.57;;;;;;;28.39;71.90;97066.72;5112762;28;20178;-57
2023/07/26 05:40:50;;;;;;;27.20;10.77;;;;;;;28.51;71.39;97102.78;5112708;28;20187;-57
2023/07/26 05:43:19;;;;;;;18.20;10.63;;;;;;;28.29;71.85;97088.66;5112601;28;20175;-57
2023/07/26 05:45:44;;;;;;;17.38;10.05;;;;;;;28.31;71.80;97080.41;5112898;28;20220;-57
2023/07/26 05:48:09;;;;;;;24.58;10.18;;;;;;;28.22;72.30;97073.94;5115071;28;20199;-57
2023/07/26 05:50:35;;;;;;;19.13;10.40;;;;;;;28.25;71.74;97071.59;5115145;28;20179;-57
2023/07/26 05:53:01;;;;;;;17.40;9.82;;;;;;;28.40;71.42;97090.41;5115097;28;20173;-57
2023/07/26 05:55:26;;;;;;;16.20;10.00;;;;;;;28.16;71.19;97057.09;5114823;28;20181;-57
2023/07/26 05:57:52;;;;;;;20.25;10.30;;;;;;;28.36;70.82;97089.28;5114801;28;20176;-57
2023/07/26 06:00:19;;;;;;;16.45;9.98;;;;;;;28.29;69.97;97067.34;5114720;28;20172;-57
2023/07/26 06:02:44;;;;;;;15.48;9.38;;;;;;;28.37;68.47;97066.97;5114658;28;20171;-57
2023/07/26 06:05:09;;;;;;;19.35;9.65;;;;;;;28.56;68.36;97089.53;5114574;28;20189;-57
2023/07/26 06:07:35;;;;;;;17.13;9.05;;;;;;;28.64;68.36;97093.59;5114626;28;20616;-57
2023/07/26 06:10:00;;;;;;;13.43;9.32;;;;;;;28.67;67.92;97079.78;5114213;28;20171;-57
2023/07/26 06:12:26;;;;;;;18.42;8.98;;;;;;;28.82;66.87;97077.28;5114421;28;20171;-57
2023/07/26 06:14:51;;;;;;;15.68;9.75;;;;;;;28.96;67.01;97095.28;5111743;28;20195;-57
2023/07/26 06:17:16;;;;;;;16.13;9.82;;;;;;;29.07;66.34;97096.19;5111862;28;20281;-57
2023/07/26 06:19:42;;;;;;;15.23;8.73;;;;;;;29.04;65.50;97086.03;5091345;28;20321;-57
2023/07/26 06:22:07;;;;;;;16.42;8.77;;;;;;;29.15;65.23;97083.19;5091417;28;20183;-57
2023/07/26 06:24:33;;;;;;;13.40;9.60;;;;;;;29.17;65.75;97096.28;5091307;28;20199;-56
2023/07/26 06:26:58;;;;;;;20.83;10.68;;;;;;;29.24;65.78;97092.34;5090508;28;20295;-56
2023/07/26 06:29:24;;;;;;;16.60;10.65;;;;;;;29.31;64.79;97098.25;5091270;28;20564;-56
2023/07/26 06:31:49;;;;;;;13.77;9.73;;;;;;;29.34;64.01;97075.63;5091266;28;20693;-56
2023/07/26 06:34:14;;;;;;;23.77;9.70;;;;;;;29.43;63.83;97074.91;5091069;28;20191;-56
2023/07/26 06:36:40;;;;;;;21.88;9.55;;;;;;;29.46;62.58;97053.06;5091172;28;20176;-56
2023/07/26 06:39:05;;;;;;;19.65;10.35;;;;;;;29.33;62.11;97056.16;5091132;28;20195;-56
2023/07/26 06:41:30;;;;;;;19.35;9.85;;;;;;;29.12;63.46;97041.09;5090972;28;20270;-56
2023/07/26 06:43:56;;;;;;;17.90;9.65;;;;;;;29.29;63.28;97051.59;5090925;28;20186;-56
2023/07/26 06:46:22;;;;;;;36.25;26.75;;;;;;;29.47;62.70;97060.00;5105504;28;20719;-56
2023/07/26 06:48:47;;;;;;;18.88;11.20;;;;;;;29.62;61.89;97049.44;5111433;28;20190;-56
2023/07/26 06:51:13;;;;;;;19.13;10.75;;;;;;;29.81;61.65;97071.16;5112808;28;20665;-56
2023/07/26 06:53:38;;;;;;;17.90;10.20;;;;;;;29.74;60.96;97068.72;5113828;28;20288;-56
2023/07/26 06:56:04;;;;;;;21.35;10.63;;;;;;;29.41;61.90;97061.03;5113650;28;20202;-56
2023/07/26 06:58:29;;;;;;;23.40;10.80;;;;;;;29.57;61.59;97052.09;5113739;28;20243;-56
2023/07/26 07:00:55;;;;;;;17.85;10.45;;;;;;;29.60;61.27;97034.75;5113662;28;20211;-56
2023/07/26 07:03:21;;;;;;;22.70;10.60;;;;;;;29.70;60.89;97027.66;5113569;28;20557;-56
2023/07/26 07:05:46;;;;;;;21.92;11.38;;;;;;;29.92;59.19;97057.63;5113495;28;20559;-56
2023/07/26 07:08:12;;;;;;;18.83;10.77;;;;;;;29.95;59.93;97037.63;5113407;28;20282;-56
2023/07/26 07:10:37;;;;;;;24.05;10.18;;;;;;;30.14;58.79;97044.16;5113502;28;20172;-56
2023/07/26 07:13:03;;;;;;;17.05;9.52;;;;;;;30.09;58.29;97030.75;5113337;28;20175;-56
2023/07/26 07:15:29;;;;;;;20.20;9.23;;;;;;;29.99;58.12;97014.69;5113309;28;20167;-56
2023/07/26 07:17:55;;;;;;;19.83;9.35;;;;;;;30.13;57.82;97022.00;5113298;28;20186;-56
2023/07/26 07:20:21;;;;;;;26.08;10.32;;;;;;;30.36;57.46;97036.72;5113329;28;20634;-56
2023/07/26 07:22:46;;;;;;;29.38;9.68;;;;;;;30.28;56.94;97006.03;5113265;28;20167;-56
2023/07/26 07:25:11;;;;;;;17.73;8.77;;;;;;;30.51;56.70;97028.78;5113236;28;20229;-56
2023/07/26 07:27:37;;;;;;;18.83;9.27;;;;;;;30.63;56.35;97038.16;5113089;28;20664;-56
2023/07/26 07:30:03;;;;;;;25.92;9.60;;;;;;;30.56;56.22;97010.09;5113034;28;20163;-57
2023/07/26 07:32:28;;;;;;;15.80;9.55;;;;;;;30.63;55.68;96997.28;5113078;28;20329;-56
2023/07/26 07:34:54;;;;;;;20.85;8.98;;;;;;;30.64;55.27;96997.03;5113342;28;20181;-56
2023/07/26 07:37:20;;;;;;;17.33;8.77;;;;;;;30.76;55.17;97005.59;5112726;28;20179;-56
2023/07/26 07:39:45;;;;;;;20.60;8.15;;;;;;;30.87;54.95;97011.75;5111803;28;20175;-56
2023/07/26 07:42:11;;;;;;;20.50;8.93;;;;;;;30.77;55.49;97004.53;5112774;28;20171;-56
2023/07/26 07:44:36;;;;;;;13.20;8.43;;;;;;;30.78;55.45;97002.66;5112732;28;20175;-56
2023/07/26 07:47:02;;;;;;;18.10;8.85;;;;;;;30.99;55.01;97015.75;5112602;28;20263;-57
2023/07/26 07:49:28;;;;;;;16.13;8.45;;;;;;;30.66;55.33;96992.22;5112644;28;20556;-57
2023/07/26 07:51:53;;;;;;;13.93;8.40;;;;;;;30.71;55.28;97002.94;5112670;28;20537;-57
2023/07/26 07:54:19;;;;;;;15.90;8.32;;;;;;;30.69;55.70;96983.69;5112913;28;20178;-57
2023/07/26 07:56:45;;;;;;;22.55;9.20;;;;;;;30.76;54.94;97010.94;5112584;28;20262;-56
2023/07/26 07:59:11;;;;;;;15.38;8.98;;;;;;;30.81;54.73;96992.25;5112426;28;20182;-57
2023/07/26 08:01:36;;;;;;;11.30;7.97;;;;;;;31.21;54.35;97019.00;5112495;28;20266;-57
2023/07/26 08:04:02;;;;;;;16.65;9.13;;;;;;;31.30;54.06;96995.19;5112474;28;20636;-57
2023/07/26 08:06:28;;;;;;;17.73;8.68;;;;;;;31.47;53.32;97007.19;5111920;28;20206;-57
2023/07/26 08:08:53;;;;;;;14.40;7.93;;;;;;;31.57;52.51;97007.16;5112448;28;20172;-57
2023/07/26 08:11:19;;;;;;;16.77;9.07;;;;;;;31.74;51.89;97013.03;5112630;28;20203;-57
2023/07/26 08:13:44;;;;;;;16.60;7.93;;;;;;;31.64;52.25;96990.81;5112291;28;20167;-57
2023/07/26 08:16:10;;;;;;;17.23;8.13;;;;;;;31.85;52.05;97019.97;5112238;28;20199;-57
2023/07/26 08:18:37;;;;;;;17.25;8.00;;;;;;;31.62;50.05;97003.66;5112100;28;20182;-57
2023/07/26 08:21:02;;;;;;;14.27;9.20;;;;;;;31.57;50.82;96988.44;5112236;28;20171;-57
2023/07/26 08:23:29;;;;;;;15.50;8.30;;;;;;;31.75;51.13;96989.75;5109399;28;20187;-57
2023/07/26 08:25:55;;;;;;;12.45;8.48;;;;;;;31.99;49.36;96998.78;5109493;28;20191;-57
2023/07/26 08:28:20;;;;;;;14.20;7.35;;;;;;;31.79;49.01;96986.28;5109477;28;20405;-57
2023/07/26 08:30:46;;;;;;;17.63;7.90;;;;;;;31.87;48.73;96974.16;5109529;28;20187;-56
2023/07/26 08:33:11;;;;;;;20.38;7.72;;;;;;;32.08;48.90;96989.88;5109395;28;20568;-56
2023/07/26 08:35:37;;;;;;;13.95;7.82;;;;;;;32.19;48.73;96972.69;5109393;28;20186;-56
2023/07/26 08:38:03;;;;;;;18.55;8.23;;;;;;;32.30;48.43;96978.81;5109382;28;20194;-56
2023/07/26 08:40:29;;;;;;;11.38;8.05;;;;;;;32.35;48.23;96970.75;5109447;28;20175;-56
2023/07/26 08:42:58;;;;;;;16.67;8.15;;;;;;;32.54;48.12;96985.09;5109152;28;20182;-56
2023/07/26 08:45:26;;;;;;;15.85;7.97;;;;;;;32.67;47.81;96973.75;5109211;28;20187;-56
2023/07/26 08:47:53;;;;;;;15.75;7.85;;;;;;;32.76;47.43;96970.22;5108941;28;20207;-56
2023/07/26 08:50:20;;;;;;;11.98;7.75;;;;;;;32.72;47.45;96961.13;5108742;28;20187;-56
2023/07/26 08:52:46;;;;;;;20.50;8.38;;;;;;;32.82;48.01;96966.41;5109232;28;20228;-56
2023/07/26 08:55:11;;;;;;;13.23;8.18;;;;;;;32.88;47.28;96946.53;5110867;28;20187;-56
2023/07/26 08:57:37;;;;;;;12.82;8.30;;;;;;;32.89;46.96;96932.06;5111731;28;20167;-56
2023/07/26 09:00:05;;;;;;;12.98;7.32;;;;;;;32.88;46.93;96933.13;5111730;28;20272;-56
2023/07/26 09:02:32;;;;;;;12.68;7.45;;;;;;;32.98;47.45;96930.34;5111626;28;20610;-56
2023/07/26 09:04:58;;;;;;;15.95;7.68;;;;;;;33.18;46.60;96948.13;5111408;28;20202;-56
2023/07/26 09:07:24;;;;;;;18.40;8.23;;;;;;;33.21;46.87;96920.72;5111224;28;20657;-56
2023/07/26 09:09:49;;;;;;;14.60;7.63;;;;;;;33.20;46.39;96913.78;5111417;28;20175;-56
2023/07/26 09:12:28;;;;;;;11.73;8.07;;;;;;;33.42;46.21;96938.25;5111416;28;20262;-56
2023/07/26 09:14:57;;;;;;;14.55;7.78;;;;;;;33.58;46.24;96937.78;5108778;28;20202;-56
2023/07/26 09:17:36;;;;;;;12.30;7.32;;;;;;;33.57;46.02;96913.94;5108948;28;20275;-56
2023/07/26 09:20:01;;;;;;;14.68;7.90;;;;;;;33.79;44.84;96938.38;5088419;28;20195;-56
2023/07/26 09:22:30;;;;;;;10.38;7.40;;;;;;;33.97;44.69;96945.69;5088618;28;20237;-57
2023/07/26 09:24:55;;;;;;;17.45;7.32;;;;;;;34.11;44.52;96942.00;5088452;28;20196;-56
2023/07/26 09:27:21;;;;;;;17.83;8.00;;;;;;;34.11;44.34;96923.19;5088506;28;20258;-56
2023/07/26 09:29:56;;;;;;;13.73;6.78;;;;;;;34.04;43.50;96914.69;5088350;28;20696;-56
2023/07/26 09:32:29;;;;;;;15.85;6.82;;;;;;;34.29;43.46;96933.16;5088558;28;20179;-56
2023/07/26 09:34:59;;;;;;;10.10;6.75;;;;;;;34.03;41.16;96907.72;5088414;28;20192;-56
2023/07/26 09:37:25;;;;;;;15.98;7.43;;;;;;;34.14;41.04;96914.53;5088501;28;20645;-55
2023/07/26 09:39:51;;;;;;;18.60;7.15;;;;;;;34.38;40.65;96926.03;5088494;28;20184;-56
2023/07/26 09:42:16;;;;;;;21.40;7.75;;;;;;;34.42;41.95;96902.88;5088402;28;20270;-56
2023/07/26 09:44:45;;;;;;;17.50;7.13;;;;;;;34.41;42.35;96887.84;5088611;28;20650;-56
2023/07/26 09:47:10;;;;;;;15.00;7.03;;;;;;;34.63;41.64;96917.56;5108729;28;20344;-56
2023/07/26 09:49:49;;;;;;;16.73;7.30;;;;;;;34.68;40.90;96895.97;5108736;28;20265;-56
2023/07/26 09:52:19;;;;;;;16.40;7.15;;;;;;;35.03;39.58;96929.56;5111166;28;20171;-56
2023/07/26 09:54:46;;;;;;;19.92;7.47;;;;;;;35.16;40.21;96920.72;5111136;28;20221;-56
2023/07/26 09:57:15;;;;;;;11.82;6.80;;;;;;;35.02;39.52;96904.56;5111139;28;20207;-57
2023/07/26 09:59:41;;;;;;;13.85;6.93;;;;;;;35.17;39.67;96917.75;5110824;28;20656;-56
2023/07/26 10:02:09;;;;;;;15.05;6.65;;;;;;;35.22;40.16;96914.97;5112310;28;20178;-56
2023/07/26 10:04:54;;;;;;;15.50;7.47;;;;;;;35.18;39.87;96881.69;5114794;28;20660;-56
2023/07/26 10:07:22;;;;;;;14.60;6.70;;;;;;;35.45;39.22;96908.63;5114907;28;20203;-57
2023/07/26 10:09:48;;;;;;;11.02;7.30;;;;;;;35.52;38.90;96898.25;5114784;28;20185;-57
2023/07/26 10:12:15;;;;;;;13.60;7.13;;;;;;;35.76;39.06;96901.56;5114633;28;20627;-57
2023/07/26 10:14:42;;;;;;;20.42;6.90;;;;;;;35.73;39.70;96872.53;5114600;28;20179;-57
2023/07/26 10:17:07;;;;;;;17.35;7.35;;;;;;;35.86;39.36;96874.41;5114593;28;20293;-57
2023/07/26 10:19:36;;;;;;;16.45;6.97;;;;;;;36.04;37.99;96886.94;5114630;28;20179;-57
2023/07/26 10:22:03;;;;;;;11.88;6.30;;;;;;;36.06;38.19;96881.22;5114521;28;20175;-57
2023/07/26 10:24:30;;;;;;;14.88;7.07;;;;;;;36.06;38.73;96865.06;5114458;28;20561;-57
2023/07/26 10:26:57;;;;;;;16.40;6.70;;;;;;;36.18;37.88;96887.72;5114370;28;20295;-57
2023/07/26 10:29:22;;;;;;;13.80;7.07;;;;;;;36.38;37.44;96895.34;5114368;28;20167;-57
2023/07/26 10:32:00;;;;;;;14.65;7.22;;;;;;;36.35;37.34;96869.00;5114300;28;20237;-57
2023/07/26 10:34:25;;;;;;;10.55;6.70;;;;;;;36.65;36.63;96895.22;5114409;28;20183;-57
2023/07/26 10:36:52;;;;;;;16.98;6.93;;;;;;;36.78;35.86;96893.56;5114240;28;20171;-57
2023/07/26 10:39:29;;;;;;;12.40;6.97;;;;;;;36.90;36.06;96899.97;5114212;28;20175;-57
2023/07/26 10:41:54;;;;;;;14.02;7.07;;;;;;;37.03;35.87;96896.41;5114179;28;20266;-57
2023/07/26 10:44:19;;;;;;;23.00;8.45;;;;;;;36.92;35.19;96857.31;5114140;28;20179;-57
2023/07/26 10:46:49;;;;;;;13.43;7.07;;;;;;;36.97;34.85;96859.88;5113996;28;20195;-57
2023/07/26 10:49:20;;;;;;;11.43;6.60;;;;;;;37.12;33.89;96861.41;5114012;28;20557;-57
2023/07/26 10:51:57;;;;;;;10.65;6.60;;;;;;;37.24;34.73;96843.50;5114020;28;20253;-57
2023/07/26 10:54:51;;;;;;;15.73;7.53;;;;;;;37.58;33.86;96865.22;5113956;28;20171;-57
2023/07/26 10:57:26;;;;;;;12.25;6.82;;;;;;;37.83;33.42;96877.97;5109160;28;20199;-57
2023/07/26 10:59:54;;;;;;;16.42;7.05;;;;;;;38.07;33.43;96878.38;5111174;28;20285;-57
2023/07/26 11:02:44;;;;;;;14.35;7.13;;;;;;;38.30;32.28;96877.13;5111279;28;20190;-57
2023/07/26 11:05:14;;;;;;;17.23;6.78;;;;;;;38.43;32.52;96876.19;5110946;28;20178;-57
2023/07/26 11:08:02;;;;;;;12.65;6.75;;;;;;;38.66;31.87;96880.28;5111186;28;20233;-57
2023/07/26 11:10:30;;;;;;;18.02;6.85;;;;;;;38.84;31.24;96875.63;5111176;28;20201;-57
2023/07/26 11:13:19;;;;;;;20.77;7.15;;;;;;;38.79;31.20;96848.72;5110766;28;20226;-57
2023/07/26 11:15:46;;;;;;;13.73;6.50;;;;;;;38.93;30.62;96835.84;5111037;28;20589;-57
2023/07/26 11:18:12;;;;;;;13.43;6.57;;;;;;;39.02;30.76;96834.69;5110939;28;20183;-57
2023/07/26 11:20:45;;;;;;;15.50;6.68;;;;;;;39.29;31.71;96845.13;5110957;28;20604;-57